Time;durP1;ratioP1;P1;durP2;ratioP2;P2;SDS_P1;SDS_P2;PMS_P1;PMS_P2;Temp;Humidity;BMP_temperature;BMP_pressure;BME280_temperature;BME280_humidity;BME280_pressure;Samples;Min_cycle;Max_cycle;Signal;HPM_P1;HPM_P2
2023/05/17 00:02:08;;;;;;;7.35;4.60;;;;;;;;;;5016561;28;20196;-68
2023/05/17 00:04:35;;;;;;;10.23;4.75;;;;;;;;;;5016871;28;20196;-68
2023/05/17 00:07:03;;;;;;;9.48;4.97;;;;;;;;;;5016379;28;20199;-68
2023/05/17 00:09:30;;;;;;;8.00;4.40;;;;;;;;;;5016466;28;20287;-68
2023/05/17 00:11:58;;;;;;;7.28;3.92;;;;;;;;;;5015992;28;20200;-68
2023/05/17 00:14:25;;;;;;;8.35;4.72;;;;;;;;;;5016082;28;20664;-68
2023/05/17 00:16:52;;;;;;;7.95;4.20;;;;;;;;;;5015859;28;20200;-68
2023/05/17 00:19:20;;;;;;;9.23;4.72;;;;;;;;;;5015921;28;20200;-68
2023/05/17 00:21:47;;;;;;;12.20;5.22;;;;;;;;;;5015817;28;20207;-68
2023/05/17 00:24:14;;;;;;;6.95;4.30;;;;;;;;;;5015904;28;20206;-68
2023/05/17 00:26:41;;;;;;;9.57;4.72;;;;;;;;;;5015726;28;20200;-68
2023/05/17 00:29:10;;;;;;;13.95;4.15;;;;;;;;;;5015891;28;20569;-68
2023/05/17 00:31:37;;;;;;;7.82;4.47;;;;;;;;;;5015613;28;20295;-68
2023/05/17 00:34:04;;;;;;;10.50;5.30;;;;;;;;;;5015688;28;20197;-68
2023/05/17 00:36:31;;;;;;;17.25;5.95;;;;;;;;;;5015856;28;20196;-68
2023/05/17 00:38:58;;;;;;;10.85;4.90;;;;;;;;;;5016227;28;20236;-68
2023/05/17 00:41:26;;;;;;;7.30;5.03;;;;;;;;;;5014897;28;20218;-68
2023/05/17 00:43:53;;;;;;;13.93;5.43;;;;;;;;;;5015493;28;20197;-68
2023/05/17 00:46:21;;;;;;;13.70;5.25;;;;;;;;;;5015507;28;20732;-68
2023/05/17 00:48:49;;;;;;;10.27;4.70;;;;;;;;;;5015690;28;20556;-68
2023/05/17 00:51:17;;;;;;;13.18;6.13;;;;;;;;;;5015735;28;20207;-68
2023/05/17 00:53:44;;;;;;;10.13;4.55;;;;;;;;;;5015649;28;20296;-68
2023/05/17 00:56:11;;;;;;;21.33;5.65;;;;;;;;;;5015527;28;20664;-68
2023/05/17 00:58:39;;;;;;;13.63;5.95;;;;;;;;;;5015104;28;20228;-68
2023/05/17 01:01:07;;;;;;;7.72;5.20;;;;;;;;;;5015111;28;20200;-68
2023/05/17 01:03:36;;;;;;;12.13;4.65;;;;;;;;;;5015486;28;20206;-68
2023/05/17 01:06:03;;;;;;;7.72;4.78;;;;;;;;;;5015346;28;20200;-68
2023/05/17 01:08:30;;;;;;;12.45;5.32;;;;;;;;;;5015546;28;20666;-68
2023/05/17 01:11:01;;;;;;;18.98;6.85;;;;;;;;;;5015154;28;20200;-68
2023/05/17 01:13:32;;;;;;;12.90;4.40;;;;;;;;;;5014952;28;20666;-68
2023/05/17 01:16:04;;;;;;;9.65;4.95;;;;;;;;;;5015846;28;20192;-68
2023/05/17 01:18:36;;;;;;;8.70;4.65;;;;;;;;;;5015115;28;20208;-68
2023/05/17 01:21:12;;;;;;;10.57;6.60;;;;;;;;;;5014781;28;20185;-68
2023/05/17 01:23:50;;;;;;;9.88;5.05;;;;;;;;;;5015215;28;20184;-67
2023/05/17 01:26:20;;;;;;;20.17;6.00;;;;;;;;;;5015435;28;20184;-67
2023/05/17 01:28:52;;;;;;;18.50;5.65;;;;;;;;;;5015004;28;20287;-68
2023/05/17 01:31:20;;;;;;;18.55;6.45;;;;;;;;;;5015535;28;20191;-68
2023/05/17 01:33:48;;;;;;;19.55;5.60;;;;;;;;;;5014994;28;20247;-68
2023/05/17 01:36:15;;;;;;;10.30;6.20;;;;;;;;;;5014709;28;20291;-68
2023/05/17 01:38:42;;;;;;;22.63;5.80;;;;;;;;;;5014663;28;20247;-68
2023/05/17 01:41:14;;;;;;;11.63;5.75;;;;;;;;;;5014426;28;20200;-68
2023/05/17 01:43:45;;;;;;;16.08;6.32;;;;;;;;;;5015061;28;20191;-68
2023/05/17 01:46:16;;;;;;;17.05;5.63;;;;;;;;;;5014722;28;20199;-67
2023/05/17 01:48:50;;;;;;;13.48;5.70;;;;;;;;;;5014702;28;20530;-68
2023/05/17 01:51:20;;;;;;;14.52;5.07;;;;;;;;;;5014839;28;20190;-68
2023/05/17 01:53:49;;;;;;;11.93;5.22;;;;;;;;;;5014484;28;20254;-68
2023/05/17 01:56:17;;;;;;;14.50;5.40;;;;;;;;;;5014471;28;20211;-68
2023/05/17 01:58:46;;;;;;;11.02;6.13;;;;;;;;;;5014285;28;20228;-68
2023/05/17 02:01:16;;;;;;;17.98;7.20;;;;;;;;;;5014624;28;20206;-68
2023/05/17 02:03:43;;;;;;;9.32;5.55;;;;;;;;;;5014537;28;20202;-68
2023/05/17 02:06:11;;;;;;;14.57;5.35;;;;;;;;;;5013839;28;20205;-68
2023/05/17 02:08:38;;;;;;;14.95;6.65;;;;;;;;;;5014273;28;20250;-68
2023/05/17 02:11:05;;;;;;;14.57;6.30;;;;;;;;;;5014225;28;20196;-68
2023/05/17 02:13:32;;;;;;;10.60;6.25;;;;;;;;;;5014103;28;20193;-68
2023/05/17 02:16:00;;;;;;;11.88;5.80;;;;;;;;;;5014172;28;20195;-68
2023/05/17 02:18:29;;;;;;;15.48;5.88;;;;;;;;;;5013663;28;20710;-68
2023/05/17 02:20:56;;;;;;;17.20;6.50;;;;;;;;;;5014066;28;20203;-68
2023/05/17 02:23:24;;;;;;;15.45;6.35;;;;;;;;;;5013696;28;20196;-68
2023/05/17 02:25:51;;;;;;;15.80;6.68;;;;;;;;;;5014037;28;20258;-68
2023/05/17 02:28:18;;;;;;;17.48;5.65;;;;;;;;;;5013630;28;20657;-68
2023/05/17 02:30:46;;;;;;;12.85;6.80;;;;;;;;;;5013610;28;20208;-68
2023/05/17 02:33:13;;;;;;;12.98;5.88;;;;;;;;;;5013438;28;20196;-68
2023/05/17 02:35:42;;;;;;;15.90;5.32;;;;;;;;;;5013854;28;20649;-68
2023/05/17 02:38:09;;;;;;;21.85;8.75;;;;;;;;;;5013804;28;20240;-69
2023/05/17 02:40:36;;;;;;;18.15;6.40;;;;;;;;;;5013928;28;20200;-68
2023/05/17 02:43:03;;;;;;;14.88;6.22;;;;;;;;;;5013900;28;20203;-69
2023/05/17 02:45:31;;;;;;;15.80;6.00;;;;;;;;;;5013429;28;20206;-68
2023/05/17 02:47:58;;;;;;;12.57;5.32;;;;;;;;;;5013690;28;20202;-68
2023/05/17 02:50:25;;;;;;;14.90;5.95;;;;;;;;;;5013304;28;20290;-67
2023/05/17 02:52:54;;;;;;;13.63;6.03;;;;;;;;;;5013736;28;20196;-68
2023/05/17 02:55:21;;;;;;;11.15;6.55;;;;;;;;;;5013639;28;20200;-68
2023/05/17 02:57:48;;;;;;;15.60;7.10;;;;;;;;;;5013584;28;20200;-68
2023/05/17 03:00:16;;;;;;;11.95;6.28;;;;;;;;;;5013527;28;20656;-68
2023/05/17 03:02:43;;;;;;;11.82;6.00;;;;;;;;;;5014377;28;20200;-68
2023/05/17 03:05:11;;;;;;;18.98;6.72;;;;;;;;;;5016658;28;20205;-68
2023/05/17 03:07:38;;;;;;;15.55;7.10;;;;;;;;;;5017754;28;20196;-68
2023/05/17 03:10:07;;;;;;;17.77;6.90;;;;;;;;;;5017441;28;20199;-68
2023/05/17 03:12:34;;;;;;;17.00;6.75;;;;;;;;;;5000181;28;20261;-68
2023/05/17 03:15:02;;;;;;;13.05;6.53;;;;;;;;;;5017566;28;20195;-68
2023/05/17 03:17:29;;;;;;;17.10;7.05;;;;;;;;;;5017473;28;20192;-68
2023/05/17 03:19:56;;;;;;;14.60;6.60;;;;;;;;;;5017240;28;20699;-68
2023/05/17 03:22:23;;;;;;;10.70;6.25;;;;;;;;;;5017644;28;20564;-68
2023/05/17 03:24:50;;;;;;;17.50;6.78;;;;;;;;;;5017224;28;20200;-69
2023/05/17 03:27:19;;;;;;;17.23;7.28;;;;;;;;;;5016982;28;20212;-68
2023/05/17 03:29:46;;;;;;;11.10;6.55;;;;;;;;;;5017103;28;20231;-68
2023/05/17 03:32:13;;;;;;;23.23;6.95;;;;;;;;;;5017156;28;20196;-69
2023/05/17 03:34:40;;;;;;;19.20;8.10;;;;;;;;;;5017075;28;20200;-69
2023/05/17 03:37:08;;;;;;;15.55;6.95;;;;;;;;;;5015569;28;20242;-69
2023/05/17 03:39:35;;;;;;;16.27;7.15;;;;;;;;;;5015751;28;20215;-69
2023/05/17 03:42:02;;;;;;;17.30;6.20;;;;;;;;;;5016301;28;20204;-68
2023/05/17 03:44:31;;;;;;;14.90;8.10;;;;;;;;;;5015843;28;20210;-69
2023/05/17 03:46:58;;;;;;;15.70;7.50;;;;;;;;;;5016261;28;20201;-69
2023/05/17 03:49:25;;;;;;;15.82;7.45;;;;;;;;;;5016177;28;20227;-69
2023/05/17 03:51:52;;;;;;;18.25;7.07;;;;;;;;;;5016197;28;20192;-69
2023/05/17 03:54:19;;;;;;;18.15;7.32;;;;;;;;;;5016021;28;20206;-69
2023/05/17 03:56:48;;;;;;;24.90;7.93;;;;;;;;;;5015793;28;20197;-69
2023/05/17 03:59:16;;;;;;;16.52;8.07;;;;;;;;;;5015952;28;20230;-69
2023/05/17 04:01:45;;;;;;;17.50;7.50;;;;;;;;;;5016289;28;20610;-70
2023/05/17 04:04:12;;;;;;;22.25;7.82;;;;;;;;;;5016005;28;20199;-70
2023/05/17 04:06:39;;;;;;;17.40;7.28;;;;;;;;;;5015633;28;20235;-67
2023/05/17 04:09:08;;;;;;;19.02;8.07;;;;;;;;;;5016465;28;20239;-69
2023/05/17 04:11:36;;;;;;;12.25;6.50;;;;;;;;;;5015836;28;20651;-68
2023/05/17 04:14:04;;;;;;;15.80;7.30;;;;;;;;;;5016231;28;20274;-68
2023/05/17 04:16:31;;;;;;;16.27;8.60;;;;;;;;;;5015838;28;20196;-68
2023/05/17 04:19:00;;;;;;;12.55;7.40;;;;;;;;;;5015490;28;20689;-68
2023/05/17 04:21:27;;;;;;;19.00;7.85;;;;;;;;;;5015447;28;20202;-68
2023/05/17 04:23:54;;;;;;;13.25;7.65;;;;;;;;;;5015458;28;20203;-68
2023/05/17 04:26:21;;;;;;;19.52;7.80;;;;;;;;;;5015365;28;20215;-69
2023/05/17 04:28:48;;;;;;;13.73;7.20;;;;;;;;;;5015996;28;20207;-68
2023/05/17 04:31:16;;;;;;;15.88;7.13;;;;;;;;;;5015879;28;20200;-68
2023/05/17 04:33:44;;;;;;;19.45;8.70;;;;;;;;;;5016194;28;20287;-68
2023/05/17 04:36:12;;;;;;;12.82;7.15;;;;;;;;;;5015609;28;20205;-74
2023/05/17 04:38:40;;;;;;;11.25;7.15;;;;;;;;;;5015803;28;20239;-69
2023/05/17 04:41:08;;;;;;;13.75;7.20;;;;;;;;;;5016071;28;20982;-68
2023/05/17 04:43:35;;;;;;;11.73;6.80;;;;;;;;;;5015733;28;20204;-68
2023/05/17 04:46:04;;;;;;;12.68;7.43;;;;;;;;;;5015295;28;20200;-68
2023/05/17 04:48:32;;;;;;;19.63;7.75;;;;;;;;;;5015475;28;20353;-68
2023/05/17 04:51:02;;;;;;;25.95;7.45;;;;;;;;;;5015605;28;20200;-68
2023/05/17 04:53:31;;;;;;;11.77;5.70;;;;;;;;;;5015859;28;20191;-68
2023/05/17 04:55:59;;;;;;;29.17;7.25;;;;;;;;;;5015448;28;20202;-68
2023/05/17 04:58:26;;;;;;;15.07;6.10;;;;;;;;;;5015162;28;20208;-68
2023/05/17 05:00:53;;;;;;;12.38;6.53;;;;;;;;;;5015290;28;20196;-68
2023/05/17 05:03:21;;;;;;;14.57;6.75;;;;;;;;;;5015014;28;20204;-67
2023/05/17 05:05:48;;;;;;;21.13;6.78;;;;;;;;;;5014834;28;20262;-67
2023/05/17 05:08:15;;;;;;;18.60;6.78;;;;;;;;;;5015032;28;20207;-68
2023/05/17 05:10:44;;;;;;;17.13;6.05;;;;;;;;;;5015097;28;20203;-67
2023/05/17 05:13:11;;;;;;;14.35;5.50;;;;;;;;;;5015163;28;20250;-67
2023/05/17 05:15:38;;;;;;;14.93;6.28;;;;;;;;;;5015036;28;20196;-67
2023/05/17 05:18:05;;;;;;;17.10;6.50;;;;;;;;;;5015184;28;20549;-67
2023/05/17 05:20:32;;;;;;;14.43;6.25;;;;;;;;;;5014768;28;20224;-68
2023/05/17 05:23:02;;;;;;;20.73;6.00;;;;;;;;;;5014914;28;20295;-67
2023/05/17 05:25:29;;;;;;;15.90;6.45;;;;;;;;;;5014449;28;20208;-69
2023/05/17 05:27:58;;;;;;;17.42;5.75;;;;;;;;;;5013965;28;20239;-67
2023/05/17 05:30:25;;;;;;;18.17;6.57;;;;;;;;;;5014461;28;20211;-67
2023/05/17 05:32:52;;;;;;;11.88;4.75;;;;;;;;;;5014413;28;20292;-67
2023/05/17 05:35:24;;;;;;;14.95;5.85;;;;;;;;;;5014974;28;20202;-67
2023/05/17 05:37:53;;;;;;;12.65;5.82;;;;;;;;;;5014609;28;20239;-68
2023/05/17 05:40:20;;;;;;;22.58;7.03;;;;;;;;;;5014398;28;20340;-68
2023/05/17 05:42:47;;;;;;;15.75;5.88;;;;;;;;;;5014419;28;20283;-67
2023/05/17 05:45:16;;;;;;;14.95;6.13;;;;;;;;;;5014279;28;20200;-67
2023/05/17 05:47:43;;;;;;;19.35;6.57;;;;;;;;;;5013979;28;20247;-67
2023/05/17 05:50:10;;;;;;;23.27;5.45;;;;;;;;;;5014220;28;20294;-67
2023/05/17 05:52:38;;;;;;;20.65;7.07;;;;;;;;;;5014138;28;20628;-67
2023/05/17 05:55:05;;;;;;;15.30;5.82;;;;;;;;;;5014349;28;20203;-67
2023/05/17 05:57:32;;;;;;;13.80;4.55;;;;;;;;;;5014079;28;20654;-66
2023/05/17 06:00:00;;;;;;;16.23;4.55;;;;;;;;;;5014214;28;20560;-67
2023/05/17 06:02:28;;;;;;;13.45;4.57;;;;;;;;;;5014105;28;20203;-67
2023/05/17 06:04:56;;;;;;;16.50;4.95;;;;;;;;;;5013764;28;20550;-67
2023/05/17 06:07:23;;;;;;;12.02;3.80;;;;;;;;;;5013287;28;20284;-67
2023/05/17 06:09:50;;;;;;;16.17;3.25;;;;;;;;;;5014115;28;20196;-67
2023/05/17 06:12:17;;;;;;;14.90;4.40;;;;;;;;;;5014027;28;20206;-68
2023/05/17 06:14:44;;;;;;;15.65;3.45;;;;;;;;;;5014194;28;20861;-67
2023/05/17 06:17:12;;;;;;;10.45;4.35;;;;;;;;;;5013676;28;20215;-67
2023/05/17 06:19:40;;;;;;;11.82;4.47;;;;;;;;;;5013925;28;20216;-68
2023/05/17 06:22:07;;;;;;;10.67;3.40;;;;;;;;;;5013905;28;20692;-67
2023/05/17 06:24:35;;;;;;;10.90;4.00;;;;;;;;;;5013700;28;20959;-67
2023/05/17 06:27:02;;;;;;;8.50;3.72;;;;;;;;;;5014327;28;20482;-67
2023/05/17 06:29:29;;;;;;;15.52;4.20;;;;;;;;;;5014049;28;20196;-67
2023/05/17 06:31:58;;;;;;;13.90;3.50;;;;;;;;;;5013825;28;20196;-67
2023/05/17 06:34:25;;;;;;;8.50;3.63;;;;;;;;;;5013615;28;20455;-66
2023/05/17 06:36:54;;;;;;;12.67;4.33;;;;;;;;;;5013471;28;20205;-67
2023/05/17 06:39:21;;;;;;;14.77;3.77;;;;;;;;;;5013168;28;20489;-66
2023/05/17 06:41:48;;;;;;;11.93;3.00;;;;;;;;;;5013636;28;20458;-67
2023/05/17 06:44:16;;;;;;;17.20;5.17;;;;;;;;;;5014324;28;20455;-67
2023/05/17 06:46:43;;;;;;;12.37;3.73;;;;;;;;;;5013749;28;20439;-67
2023/05/17 06:49:10;;;;;;;11.52;3.13;;;;;;;;;;5014048;28;20450;-67
2023/05/17 06:51:37;;;;;;;9.98;3.30;;;;;;;;;;5013688;28;20199;-67
2023/05/17 06:54:06;;;;;;;9.18;2.60;;;;;;;;;;5013642;28;20197;-67
2023/05/17 06:56:33;;;;;;;12.33;3.20;;;;;;;;;;5013642;28;20198;-67
2023/05/17 06:59:01;;;;;;;7.82;2.97;;;;;;;;;;5013386;28;20439;-67
2023/05/17 07:01:28;;;;;;;11.87;4.83;;;;;;;;;;5013545;28;20235;-66
2023/05/17 07:03:55;;;;;;;8.53;3.03;;;;;;;;;;5013138;28;20447;-66
2023/05/17 07:06:22;;;;;;;7.23;2.30;;;;;;;;;;5013410;28;20480;-67
2023/05/17 07:08:55;;;;;;;9.23;3.13;;;;;;;;;;5013451;28;20440;-66
2023/05/17 07:11:24;;;;;;;9.07;3.00;;;;;;;;;;5013168;28;20940;-66
2023/05/17 07:13:51;;;;;;;9.03;3.00;;;;;;;;;;5013391;28;20445;-66
2023/05/17 07:16:18;;;;;;;14.53;3.37;;;;;;;;;;5012571;28;20455;-68
2023/05/17 07:18:45;;;;;;;8.67;3.03;;;;;;;;;;5012730;28;20453;-66
2023/05/17 07:21:12;;;;;;;5.23;2.70;;;;;;;;;;5012875;28;20475;-66
2023/05/17 07:23:41;;;;;;;13.40;3.53;;;;;;;;;;5012911;28;20444;-66
2023/05/17 07:26:08;;;;;;;7.80;2.63;;;;;;;;;;5013644;28;20808;-68
2023/05/17 07:28:37;;;;;;;9.93;2.97;;;;;;;;;;5012818;28;20569;-68
2023/05/17 07:31:04;;;;;;;7.15;2.38;;;;;;;;;;5013089;28;20550;-68
2023/05/17 07:33:31;;;;;;;12.27;3.23;;;;;;;;;;5012902;28;20287;-67
2023/05/17 07:35:58;;;;;;;9.10;2.63;;;;;;;;;;5012426;28;20453;-66
2023/05/17 07:38:26;;;;;;;16.70;5.80;;;;;;;;;;5012229;28;20487;-67
2023/05/17 07:40:53;;;;;;;7.90;2.53;;;;;;;;;;5012788;28;20487;-67
2023/05/17 07:43:20;;;;;;;8.87;3.70;;;;;;;;;;5012460;28;20448;-67
2023/05/17 07:45:48;;;;;;;8.53;3.00;;;;;;;;;;5012828;28;20450;-67
2023/05/17 07:48:16;;;;;;;6.67;2.90;;;;;;;;;;5013020;28;20963;-68
2023/05/17 07:50:43;;;;;;;4.33;2.30;;;;;;;;;;5015179;28;20835;-67
2023/05/17 07:53:11;;;;;;;13.90;3.20;;;;;;;;;;5016604;28;20451;-68
2023/05/17 07:55:38;;;;;;;6.70;2.57;;;;;;;;;;5016394;28;20459;-67
2023/05/17 07:58:05;;;;;;;11.93;2.90;;;;;;;;;;5016075;28;20451;-68
2023/05/17 08:00:32;;;;;;;12.70;2.80;;;;;;;;;;5016236;28;20479;-67
2023/05/17 08:03:02;;;;;;;12.70;3.20;;;;;;;;;;5016558;28;20852;-67
2023/05/17 08:05:29;;;;;;;10.43;3.17;;;;;;;;;;5015862;28;20461;-67
2023/05/17 08:07:58;;;;;;;13.63;3.17;;;;;;;;;;5015607;28;20454;-67
2023/05/17 08:10:26;;;;;;;11.70;3.90;;;;;;;;;;5015858;28;20451;-67
2023/05/17 08:12:53;;;;;;;7.90;2.90;;;;;;;;;;5016349;28;20455;-68
2023/05/17 08:15:20;;;;;;;4.40;2.07;;;;;;;;;;5015940;28;22122;-67
2023/05/17 08:17:47;;;;;;;16.30;3.27;;;;;;;;;;5015426;28;20959;-67
2023/05/17 08:20:16;;;;;;;6.87;2.60;;;;;;;;;;5015556;28;20479;-75
2023/05/17 08:22:43;;;;;;;6.83;2.50;;;;;;;;;;5015719;28;20446;-68
2023/05/17 08:25:11;;;;;;;8.13;3.37;;;;;;;;;;5016130;28;20518;-67
2023/05/17 08:27:38;;;;;;;7.80;2.50;;;;;;;;;;5015981;28;20438;-68
2023/05/17 08:30:06;;;;;;;6.40;2.10;;;;;;;;;;5016074;28;20442;-68
2023/05/17 08:32:34;;;;;;;7.97;2.33;;;;;;;;;;5015965;28;20446;-68
2023/05/17 08:35:01;;;;;;;6.07;2.20;;;;;;;;;;5015350;28;20535;-67
2023/05/17 08:37:29;;;;;;;6.60;2.80;;;;;;;;;;5014984;28;20475;-68
2023/05/17 08:39:57;;;;;;;11.47;2.83;;;;;;;;;;5015334;28;20569;-67
2023/05/17 08:42:25;;;;;;;13.83;2.73;;;;;;;;;;5015690;28;20454;-67
2023/05/17 08:44:52;;;;;;;6.27;2.40;;;;;;;;;;5015747;28;20443;-68
2023/05/17 08:47:28;;;;;;;7.20;2.67;;;;;;;;;;5015296;28;20451;-68
2023/05/17 08:49:59;;;;;;;11.30;2.70;;;;;;;;;;5015637;28;20815;-68
2023/05/17 08:52:29;;;;;;;7.00;1.97;;;;;;;;;;5015636;28;20516;-68
2023/05/17 08:54:58;;;;;;;9.43;2.77;;;;;;;;;;5015113;28;20941;-68
2023/05/17 08:57:25;;;;;;;8.57;2.50;;;;;;;;;;5014580;28;20449;-68
2023/05/17 08:59:53;;;;;;;11.43;2.73;;;;;;;;;;5014806;28;20483;-67
2023/05/17 09:02:27;;;;;;;9.20;2.97;;;;;;;;;;5014486;28;20447;-68
2023/05/17 09:04:54;;;;;;;6.20;2.53;;;;;;;;;;5014900;28;20424;-68
2023/05/17 09:07:22;;;;;;;4.30;2.73;;;;;;;;;;5015475;28;20455;-68
2023/05/17 09:09:52;;;;;;;10.30;2.90;;;;;;;;;;5015090;28;20474;-68
2023/05/17 09:12:21;;;;;;;8.03;3.47;;;;;;;;;;5015001;28;20443;-68
2023/05/17 09:14:48;;;;;;;5.40;2.77;;;;;;;;;;5014638;28;20443;-68
2023/05/17 09:17:17;;;;;;;12.30;2.63;;;;;;;;;;5014201;28;20454;-70
2023/05/17 09:19:45;;;;;;;7.17;2.97;;;;;;;;;;5014254;28;20457;-68
2023/05/17 09:22:13;;;;;;;16.27;2.97;;;;;;;;;;5014944;28;20476;-69
2023/05/17 09:24:41;;;;;;;11.93;2.83;;;;;;;;;;5014936;28;20447;-69
2023/05/17 09:27:08;;;;;;;7.27;3.00;;;;;;;;;;5014593;28;20440;-69
2023/05/17 09:29:37;;;;;;;6.93;2.00;;;;;;;;;;5014623;28;20819;-68
2023/05/17 09:32:13;;;;;;;5.70;2.57;;;;;;;;;;5014495;28;20444;-69
2023/05/17 09:34:41;;;;;;;9.37;2.53;;;;;;;;;;5014088;28;20455;-69
2023/05/17 09:37:13;;;;;;;8.70;3.70;;;;;;;;;;5013852;28;20479;-69
2023/05/17 09:39:41;;;;;;;10.30;2.83;;;;;;;;;;5014183;28;20435;-69
2023/05/17 09:42:08;;;;;;;7.10;2.50;;;;;;;;;;5014501;28;20589;-69
2023/05/17 09:44:47;;;;;;;8.00;2.60;;;;;;;;;;5014143;28;20447;-69
2023/05/17 09:47:22;;;;;;;6.63;2.37;;;;;;;;;;5014228;28;20932;-69
2023/05/17 09:49:49;;;;;;;7.43;2.67;;;;;;;;;;5014792;28;20434;-69
2023/05/17 09:52:19;;;;;;;8.07;2.77;;;;;;;;;;5014371;28;21025;-69
2023/05/17 09:54:52;;;;;;;7.00;2.40;;;;;;;;;;5014462;28;20468;-69
2023/05/17 09:57:19;;;;;;;8.30;2.57;;;;;;;;;;5014267;28;20459;-69
2023/05/17 09:59:48;;;;;;;6.07;2.90;;;;;;;;;;5014517;28;20445;-69
2023/05/17 10:02:20;;;;;;;11.73;3.07;;;;;;;;;;5014244;28;20492;-69
2023/05/17 10:04:48;;;;;;;5.83;2.60;;;;;;;;;;5014441;28;20782;-69
2023/05/17 10:07:16;;;;;;;5.53;2.70;;;;;;;;;;5014098;28;20448;-69
2023/05/17 10:09:44;;;;;;;7.17;2.70;;;;;;;;;;5014241;28;20458;-69
2023/05/17 10:12:14;;;;;;;9.30;2.37;;;;;;;;;;5013939;28;20453;-69
2023/05/17 10:14:43;;;;;;;6.20;2.73;;;;;;;;;;5014336;28;20517;-68
2023/05/17 10:17:12;;;;;;;6.03;2.57;;;;;;;;;;5013955;28;20445;-69
2023/05/17 10:19:40;;;;;;;3.73;2.00;;;;;;;;;;5013799;28;20479;-69
2023/05/17 10:22:08;;;;;;;4.43;2.30;;;;;;;;;;5013979;28;20881;-69
2023/05/17 10:24:36;;;;;;;3.37;2.07;;;;;;;;;;5013974;28;20436;-68
2023/05/17 10:27:04;;;;;;;11.60;2.70;;;;;;;;;;5013898;28;20454;-69
2023/05/17 10:29:31;;;;;;;8.30;3.47;;;;;;;;;;5013642;28;20536;-69
2023/05/17 10:31:59;;;;;;;9.80;2.63;;;;;;;;;;5013555;28;20504;-69
2023/05/17 10:34:29;;;;;;;7.70;2.40;;;;;;;;;;5014646;28;20961;-69
2023/05/17 10:36:56;;;;;;;9.27;2.53;;;;;;;;;;5013618;28;20447;-69
2023/05/17 10:39:24;;;;;;;8.93;2.80;;;;;;;;;;5014233;28;20524;-68
2023/05/17 10:41:53;;;;;;;6.07;2.13;;;;;;;;;;5013740;28;20488;-69
2023/05/17 10:44:21;;;;;;;7.13;2.40;;;;;;;;;;5013456;28;20464;-69
2023/05/17 10:46:55;;;;;;;9.50;2.87;;;;;;;;;;5013625;28;20440;-69
2023/05/17 10:49:25;;;;;;;7.10;2.57;;;;;;;;;;5013750;28;20511;-69
2023/05/17 10:51:54;;;;;;;7.90;2.17;;;;;;;;;;5013350;28;20494;-69
2023/05/17 10:54:21;;;;;;;6.53;2.10;;;;;;;;;;5014412;28;20543;-69
2023/05/17 10:56:49;;;;;;;10.27;2.33;;;;;;;;;;5013571;28;20802;-69
2023/05/17 10:59:17;;;;;;;8.30;2.47;;;;;;;;;;5013981;28;20447;-69
2023/05/17 11:02:02;;;;;;;6.63;2.53;;;;;;;;;;5013449;28;20834;-69
2023/05/17 11:04:33;;;;;;;6.80;2.60;;;;;;;;;;5013437;28;20453;-69
2023/05/17 11:07:20;;;;;;;6.87;2.10;;;;;;;;;;5013557;28;20442;-69
2023/05/17 11:09:50;;;;;;;4.20;2.30;;;;;;;;;;5013733;28;20548;-69
2023/05/17 11:12:18;;;;;;;5.67;2.40;;;;;;;;;;5013563;28;20448;-69
2023/05/17 11:14:49;;;;;;;5.93;2.50;;;;;;;;;;5013487;28;20445;-69
2023/05/17 11:17:16;;;;;;;6.37;3.00;;;;;;;;;;5013039;28;20643;-69
2023/05/17 11:19:50;;;;;;;6.47;2.93;;;;;;;;;;5013122;28;20452;-69
2023/05/17 11:22:17;;;;;;;8.47;2.87;;;;;;;;;;5013382;28;20482;-69
2023/05/17 11:24:45;;;;;;;5.83;2.80;;;;;;;;;;5014499;28;20453;-70
2023/05/17 11:27:15;;;;;;;11.40;2.83;;;;;;;;;;5017176;28;20446;-69
2023/05/17 11:29:42;;;;;;;10.17;2.90;;;;;;;;;;5017335;28;20450;-69
2023/05/17 11:32:11;;;;;;;6.83;2.23;;;;;;;;;;5017317;28;20452;-69
2023/05/17 11:34:38;;;;;;;12.17;3.30;;;;;;;;;;5016956;28;20536;-69
2023/05/17 11:37:10;;;;;;;4.70;2.60;;;;;;;;;;5016530;28;20979;-69
2023/05/17 11:39:38;;;;;;;7.43;2.80;;;;;;;;;;5017715;28;20464;-69
2023/05/17 11:42:05;;;;;;;11.33;3.57;;;;;;;;;;5016508;28;20490;-69
2023/05/17 11:44:34;;;;;;;11.30;2.90;;;;;;;;;;5016603;28;20489;-69
2023/05/17 11:47:03;;;;;;;7.83;2.87;;;;;;;;;;5016795;28;20536;-69
2023/05/17 11:49:31;;;;;;;6.00;2.60;;;;;;;;;;5016870;28;20448;-69
2023/05/17 11:51:58;;;;;;;8.43;3.03;;;;;;;;;;5016840;28;20449;-69
2023/05/17 11:54:26;;;;;;;11.83;2.90;;;;;;;;;;5015952;28;20791;-69
2023/05/17 11:56:54;;;;;;;11.33;2.60;;;;;;;;;;5015822;28;20455;-69
2023/05/17 11:59:21;;;;;;;7.47;3.00;;;;;;;;;;5016538;28;21013;-70
2023/05/17 12:01:50;;;;;;;17.73;3.73;;;;;;;;;;5016506;28;20920;-69
2023/05/17 12:04:24;;;;;;;6.93;3.87;;;;;;;;;;5016310;28;20533;-69
2023/05/17 12:06:51;;;;;;;5.60;2.80;;;;;;;;;;5015101;28;20465;-69
2023/05/17 12:09:18;;;;;;;7.50;3.23;;;;;;;;;;5015265;28;20576;-69
2023/05/17 12:11:46;;;;;;;12.30;3.47;;;;;;;;;;5015697;28;20444;-70
2023/05/17 12:14:16;;;;;;;13.17;6.00;;;;;;;;;;5015619;28;20537;-68
2023/05/17 12:16:44;;;;;;;9.13;3.10;;;;;;;;;;5015995;28;20556;-68
2023/05/17 12:19:19;;;;;;;5.63;3.23;;;;;;;;;;5015771;28;20441;-68
2023/05/17 12:21:46;;;;;;;4.90;3.03;;;;;;;;;;5015751;28;20522;-67
2023/05/17 12:24:13;;;;;;;10.30;3.10;;;;;;;;;;5015061;28;20445;-68
2023/05/17 12:26:43;;;;;;;7.83;3.03;;;;;;;;;;5015803;28;20457;-68
2023/05/17 12:29:11;;;;;;;7.13;2.93;;;;;;;;;;5015604;28;20447;-68
2023/05/17 12:31:39;;;;;;;9.50;3.00;;;;;;;;;;5015400;28;20524;-68
2023/05/17 12:34:07;;;;;;;12.23;3.23;;;;;;;;;;5015499;28;20456;-68
2023/05/17 12:36:36;;;;;;;8.73;3.13;;;;;;;;;;5015714;28;20450;-68
2023/05/17 12:39:08;;;;;;;13.63;3.30;;;;;;;;;;5015898;28;20528;-67
2023/05/17 12:41:37;;;;;;;9.53;3.17;;;;;;;;;;5015375;28;20477;-68
2023/05/17 12:44:04;;;;;;;8.60;2.63;;;;;;;;;;5015297;28;20537;-68
2023/05/17 12:46:32;;;;;;;8.27;3.60;;;;;;;;;;5015696;28;20526;-69
2023/05/17 12:49:02;;;;;;;9.93;4.30;;;;;;;;;;5015060;28;20460;-67
2023/05/17 12:51:30;;;;;;;12.13;2.90;;;;;;;;;;5015210;28;20456;-68
2023/05/17 12:53:59;;;;;;;11.20;3.17;;;;;;;;;;5015609;28;20453;-67
2023/05/17 12:56:28;;;;;;;11.97;3.60;;;;;;;;;;5015292;28;20540;-67
2023/05/17 12:59:05;;;;;;;16.37;5.73;;;;;;;;;;5015313;28;20442;-68
2023/05/17 13:01:36;;;;;;;7.43;2.90;;;;;;;;;;5015229;28;20479;-68
2023/05/17 13:04:03;;;;;;;12.93;4.10;;;;;;;;;;5015000;28;20449;-68
2023/05/17 13:06:30;;;;;;;10.67;2.90;;;;;;;;;;5014950;28;20459;-68
2023/05/17 13:09:02;;;;;;;9.10;3.47;;;;;;;;;;5014691;28;20450;-68
2023/05/17 13:11:29;;;;;;;10.33;3.47;;;;;;;;;;5014936;28;20796;-67
2023/05/17 13:13:56;;;;;;;10.00;3.60;;;;;;;;;;5015079;28;20448;-68
2023/05/17 13:16:30;;;;;;;7.67;2.73;;;;;;;;;;5015303;28;20456;-68
2023/05/17 13:18:57;;;;;;;4.23;2.50;;;;;;;;;;5014610;28;20452;-68
2023/05/17 13:21:24;;;;;;;10.77;3.30;;;;;;;;;;5015237;28;20531;-68
2023/05/17 13:23:52;;;;;;;11.27;3.47;;;;;;;;;;5015223;28;20457;-68
2023/05/17 13:26:20;;;;;;;12.00;3.33;;;;;;;;;;5015913;28;20790;-68
2023/05/17 13:28:49;;;;;;;9.67;3.40;;;;;;;;;;5014715;28;21002;-68
2023/05/17 13:31:17;;;;;;;11.63;3.60;;;;;;;;;;5013830;28;20451;-68
2023/05/17 13:33:44;;;;;;;5.43;2.93;;;;;;;;;;5014180;28;20447;-68
2023/05/17 13:36:11;;;;;;;8.37;2.73;;;;;;;;;;5014337;28;20457;-68
2023/05/17 13:38:39;;;;;;;13.70;3.50;;;;;;;;;;5014803;28;20856;-68
2023/05/17 13:41:08;;;;;;;6.30;3.30;;;;;;;;;;5014877;28;20921;-68
2023/05/17 13:43:36;;;;;;;8.20;3.13;;;;;;;;;;5014511;28;20447;-68
2023/05/17 13:46:03;;;;;;;9.93;3.20;;;;;;;;;;5014613;28;20795;-68
2023/05/17 13:48:30;;;;;;;14.43;3.20;;;;;;;;;;5013943;28;20954;-68
2023/05/17 13:50:58;;;;;;;10.57;3.60;;;;;;;;;;5014333;28;20516;-68
2023/05/17 13:53:25;;;;;;;8.90;2.93;;;;;;;;;;5013973;28;20454;-68
2023/05/17 13:55:52;;;;;;;8.50;3.53;;;;;;;;;;5014386;28;20469;-68
2023/05/17 13:58:20;;;;;;;7.20;2.80;;;;;;;;;;5014300;28;20454;-68
2023/05/17 14:00:48;;;;;;;7.60;3.30;;;;;;;;;;5014032;28;20443;-68
2023/05/17 14:03:15;;;;;;;11.00;3.10;;;;;;;;;;5014125;28;20484;-68
2023/05/17 14:05:43;;;;;;;9.60;2.90;;;;;;;;;;5014310;28;20449;-67
2023/05/17 14:08:11;;;;;;;6.10;2.50;;;;;;;;;;5013777;28;20956;-68
2023/05/17 14:10:38;;;;;;;9.20;2.50;;;;;;;;;;5014047;28;20481;-68
2023/05/17 14:13:06;;;;;;;10.93;2.87;;;;;;;;;;5013602;28;20455;-69
2023/05/17 14:15:37;;;;;;;7.57;2.70;;;;;;;;;;5013826;28;20870;-68
2023/05/17 14:18:05;;;;;;;10.17;3.00;;;;;;;;;;5014292;28;20509;-68
2023/05/17 14:20:33;;;;;;;6.20;3.07;;;;;;;;;;5013582;28;20527;-68
2023/05/17 14:23:00;;;;;;;7.00;3.43;;;;;;;;;;5013965;28;20483;-68
2023/05/17 14:25:27;;;;;;;6.13;3.20;;;;;;;;;;5013443;28;20885;-69
2023/05/17 14:27:56;;;;;;;6.80;2.60;;;;;;;;;;5014109;28;20449;-68
2023/05/17 14:30:23;;;;;;;7.90;2.90;;;;;;;;;;5013568;28;20518;-68
2023/05/17 14:32:51;;;;;;;13.20;2.80;;;;;;;;;;5013226;28;20440;-69
2023/05/17 14:35:19;;;;;;;8.50;3.17;;;;;;;;;;5013481;28;20502;-69
2023/05/17 14:37:46;;;;;;;13.07;3.90;;;;;;;;;;5013283;28;20886;-69
2023/05/17 14:40:14;;;;;;;7.60;3.07;;;;;;;;;;5013563;28;20461;-69
2023/05/17 14:42:42;;;;;;;6.67;3.20;;;;;;;;;;5013499;28;20482;-68